createdAt,value
2023-02-19T00:01:13.661Z,2.30
2023-02-19T00:03:41.377Z,2.90
2023-02-19T00:06:10.670Z,2.00
2023-02-19T00:08:41.392Z,2.07
2023-02-19T00:11:10.828Z,1.83
2023-02-19T00:13:38.381Z,2.23
2023-02-19T00:16:06.252Z,1.80
2023-02-19T00:18:33.410Z,2.07
2023-02-19T00:20:59.820Z,2.07
2023-02-19T00:23:27.295Z,1.73
2023-02-19T00:25:53.775Z,2.00
2023-02-19T00:28:20.500Z,1.90
2023-02-19T00:30:47.171Z,2.07
2023-02-19T00:33:13.578Z,2.20
2023-02-19T00:35:40.843Z,2.10
2023-02-19T00:38:07.328Z,1.90
2023-02-19T00:40:33.750Z,1.90
2023-02-19T00:43:00.135Z,2.10
2023-02-19T00:45:26.682Z,1.83
2023-02-19T00:47:53.945Z,2.10
2023-02-19T00:50:21.215Z,2.20
2023-02-19T00:52:48.318Z,2.33
2023-02-19T00:55:14.880Z,2.03
2023-02-19T00:57:41.327Z,1.90
2023-02-19T01:00:09.302Z,2.03
2023-02-19T01:02:35.732Z,2.10
2023-02-19T01:05:02.226Z,2.17
2023-02-19T01:07:28.706Z,2.27
2023-02-19T01:09:55.793Z,1.90
2023-02-19T01:12:23.547Z,2.47
2023-02-19T01:14:49.947Z,1.83
2023-02-19T01:17:16.374Z,2.17
2023-02-19T01:19:42.767Z,1.87
2023-02-19T01:22:09.271Z,2.17
2023-02-19T01:24:35.649Z,2.20
2023-02-19T01:27:02.825Z,2.13
2023-02-19T01:29:29.264Z,1.90
2023-02-19T01:31:55.755Z,2.13
2023-02-19T01:34:22.342Z,2.00
2023-02-19T01:36:48.808Z,2.27
2023-02-19T01:39:15.180Z,2.00
2023-02-19T01:41:41.901Z,1.90
2023-02-19T01:44:47.891Z,2.00
2023-02-19T01:47:18.082Z,2.40
2023-02-19T01:49:48.210Z,2.23
2023-02-19T01:52:18.496Z,2.10
2023-02-19T01:54:45.878Z,2.30
2023-02-19T01:57:17.830Z,1.77
2023-02-19T01:59:46.989Z,1.90
2023-02-19T02:02:13.463Z,2.00
2023-02-19T02:04:40.035Z,2.03
2023-02-19T02:07:27.691Z,2.23
2023-02-19T02:10:12.646Z,2.20
2023-02-19T02:12:39.094Z,2.03
2023-02-19T02:15:07.517Z,2.00
2023-02-19T02:17:42.481Z,2.30
2023-02-19T02:20:31.993Z,2.10
2023-02-19T02:23:08.441Z,1.93
2023-02-19T02:25:58.706Z,2.17
2023-02-19T02:28:38.793Z,1.93
2023-02-19T02:31:13.013Z,1.90
2023-02-19T02:33:46.198Z,1.80
2023-02-19T02:36:16.778Z,2.20
2023-02-19T02:38:45.734Z,2.13
2023-02-19T02:41:14.274Z,2.87
2023-02-19T02:43:41.266Z,1.90
2023-02-19T02:46:11.199Z,3.17
2023-02-19T02:48:42.073Z,1.90
2023-02-19T02:51:20.340Z,2.23
2023-02-19T02:54:25.451Z,2.40
2023-02-19T02:56:55.461Z,3.37
2023-02-19T02:59:25.395Z,3.07
2023-02-19T03:02:11.569Z,2.40
2023-02-19T03:05:01.053Z,2.60
2023-02-19T03:07:33.648Z,2.50
2023-02-19T03:10:04.339Z,3.10
2023-02-19T03:12:50.926Z,2.60
2023-02-19T03:15:37.291Z,2.93
2023-02-19T03:18:27.179Z,2.83
2023-02-19T03:20:57.440Z,2.80
2023-02-19T03:23:43.264Z,3.27
2023-02-19T03:26:11.653Z,2.90
2023-02-19T03:29:05.021Z,3.03
2023-02-19T03:31:32.825Z,3.13
2023-02-19T03:34:04.744Z,3.40
2023-02-19T03:36:36.756Z,3.27
2023-02-19T03:39:06.217Z,3.00
2023-02-19T03:41:40.715Z,3.27
2023-02-19T03:44:13.161Z,4.10
2023-02-19T03:46:48.512Z,3.40
2023-02-19T03:49:26.032Z,3.67
2023-02-19T03:52:02.136Z,3.53
2023-02-19T03:54:37.763Z,3.23
2023-02-19T03:57:11.604Z,4.63
2023-02-19T03:59:46.895Z,3.03
2023-02-19T04:02:16.610Z,3.17
2023-02-19T04:04:49.238Z,3.83
2023-02-19T04:07:16.162Z,2.90
2023-02-19T04:09:46.357Z,5.17
2023-02-19T04:12:20.736Z,3.73
2023-02-19T04:14:53.297Z,3.80
2023-02-19T04:17:24.568Z,2.90
2023-02-19T04:19:54.230Z,3.27
2023-02-19T04:22:22.250Z,3.60
2023-02-19T04:24:51.726Z,4.07
2023-02-19T04:27:18.462Z,2.87
2023-02-19T04:29:45.829Z,3.00
2023-02-19T04:32:13.811Z,3.67
2023-02-19T04:34:40.639Z,3.50
2023-02-19T04:37:07.748Z,3.00
2023-02-19T04:39:34.640Z,3.17
2023-02-19T04:42:01.390Z,3.30
2023-02-19T04:44:27.815Z,4.43
2023-02-19T04:46:55.426Z,2.90
2023-02-19T04:49:21.932Z,2.90
2023-02-19T04:51:48.429Z,2.80
2023-02-19T04:54:15.594Z,3.20
2023-02-19T04:56:42.086Z,3.50
2023-02-19T04:59:08.527Z,3.40
2023-02-19T05:01:35.098Z,3.07
2023-02-19T05:04:01.634Z,3.50
2023-02-19T05:06:28.042Z,3.60
2023-02-19T05:08:54.552Z,2.50
2023-02-19T05:11:23.346Z,2.73
2023-02-19T05:13:49.816Z,2.90
2023-02-19T05:16:16.857Z,2.87
2023-02-19T05:18:45.930Z,2.77
2023-02-19T05:21:13.086Z,2.87
2023-02-19T05:23:39.807Z,2.87
2023-02-19T05:26:06.906Z,2.90
2023-02-19T05:28:34.317Z,2.60
2023-02-19T05:31:05.192Z,2.70
2023-02-19T05:33:31.926Z,2.60
2023-02-19T05:35:58.521Z,2.93
2023-02-19T05:38:25.483Z,2.63
2023-02-19T05:40:52.084Z,2.40
2023-02-19T05:43:18.611Z,2.63
2023-02-19T05:45:45.790Z,2.53
2023-02-19T05:48:12.241Z,2.83
2023-02-19T05:50:39.968Z,2.87
2023-02-19T05:53:12.543Z,2.63
2023-02-19T05:55:39.104Z,2.40
2023-02-19T05:58:05.572Z,2.13
2023-02-19T06:00:33.076Z,2.50
2023-02-19T06:03:01.006Z,2.30
2023-02-19T06:05:27.601Z,2.60
2023-02-19T06:07:54.112Z,2.40
2023-02-19T06:10:20.544Z,2.20
2023-02-19T06:12:47.038Z,2.20
2023-02-19T06:15:13.708Z,2.67
2023-02-19T06:17:43.153Z,2.20
2023-02-19T06:20:10.708Z,2.77
2023-02-19T06:22:37.460Z,2.50
2023-02-19T06:25:05.121Z,2.33
2023-02-19T06:27:31.683Z,2.27
2023-02-19T06:29:58.224Z,2.17
2023-02-19T06:32:24.957Z,2.40
2023-02-19T06:34:51.549Z,2.13
2023-02-19T06:37:19.107Z,2.20
2023-02-19T06:39:45.484Z,1.87
2023-02-19T06:42:12.219Z,2.20
2023-02-19T06:44:38.787Z,2.40
2023-02-19T06:47:05.365Z,2.20
2023-02-19T06:49:31.842Z,2.30
2023-02-19T06:51:59.865Z,2.20
2023-02-19T06:54:27.164Z,1.93
2023-02-19T06:56:53.948Z,2.20
2023-02-19T06:59:20.443Z,2.17
2023-02-19T07:01:47.373Z,2.67
2023-02-19T07:04:14.114Z,2.23
2023-02-19T07:06:40.700Z,2.20
2023-02-19T07:09:08.706Z,3.40
2023-02-19T07:11:38.830Z,2.77
2023-02-19T07:14:07.859Z,2.70
2023-02-19T07:16:34.566Z,2.10
2023-02-19T07:19:01.832Z,2.27
2023-02-19T07:21:29.055Z,2.37
2023-02-19T07:23:56.740Z,2.07
2023-02-19T07:26:24.140Z,3.53
2023-02-19T07:28:51.678Z,2.40
2023-02-19T07:31:20.663Z,2.40
2023-02-19T07:33:47.598Z,1.90
2023-02-19T07:36:16.502Z,2.77
2023-02-19T07:38:43.506Z,2.00
2023-02-19T07:41:10.884Z,2.67
2023-02-19T07:43:38.898Z,2.53
2023-02-19T07:46:07.994Z,2.70
2023-02-19T07:48:34.802Z,2.40
2023-02-19T07:51:02.988Z,2.47
2023-02-19T07:53:30.457Z,2.27
2023-02-19T07:56:00.317Z,2.57
2023-02-19T07:58:26.805Z,2.33
2023-02-19T08:00:53.353Z,2.33
2023-02-19T08:03:20.176Z,2.87
2023-02-19T08:05:49.111Z,4.43
2023-02-19T08:08:16.212Z,6.07
2023-02-19T08:11:01.389Z,4.97
2023-02-19T08:13:30.180Z,8.20
2023-02-19T08:16:17.317Z,2.60
2023-02-19T08:18:48.207Z,2.83
2023-02-19T08:21:17.393Z,2.40
2023-02-19T08:23:45.552Z,3.03
2023-02-19T08:26:12.204Z,3.27
2023-02-19T08:28:38.922Z,3.10
2023-02-19T08:31:07.728Z,3.20
2023-02-19T08:33:34.855Z,3.10
2023-02-19T08:36:04.175Z,3.63
2023-02-19T08:38:31.214Z,4.40
2023-02-19T08:40:57.794Z,3.93
2023-02-19T08:43:24.291Z,3.60
2023-02-19T08:45:54.041Z,3.17
2023-02-19T08:48:20.730Z,3.70
2023-02-19T08:50:53.727Z,3.10
2023-02-19T08:53:20.879Z,3.30
2023-02-19T08:55:47.367Z,5.27
2023-02-19T08:58:13.804Z,3.20
2023-02-19T09:00:40.505Z,3.47
2023-02-19T09:03:07.006Z,3.10
2023-02-19T09:05:33.566Z,3.13
2023-02-19T09:08:00.080Z,3.40
2023-02-19T09:10:27.203Z,2.47
2023-02-19T09:12:53.803Z,2.10
2023-02-19T09:15:20.461Z,2.57
2023-02-19T09:17:51.096Z,2.77
2023-02-19T09:20:18.455Z,2.30
2023-02-19T09:22:45.277Z,2.27
2023-02-19T09:25:11.991Z,2.13
2023-02-19T09:27:41.238Z,2.10
2023-02-19T09:30:08.832Z,2.20
2023-02-19T09:32:35.394Z,2.37
2023-02-19T09:35:01.996Z,2.37
2023-02-19T09:37:28.878Z,1.93
2023-02-19T09:39:55.647Z,2.00
2023-02-19T09:42:24.281Z,1.83
2023-02-19T09:44:54.750Z,1.90
2023-02-19T09:47:23.923Z,1.50
2023-02-19T09:49:53.744Z,1.70
2023-02-19T09:52:33.708Z,1.60
2023-02-19T09:55:02.826Z,1.70
2023-02-19T09:57:31.954Z,1.53
2023-02-19T10:00:04.658Z,1.40
2023-02-19T10:02:31.370Z,1.57
2023-02-19T10:04:58.499Z,1.33
2023-02-19T10:07:27.840Z,1.30
2023-02-19T10:09:58.683Z,1.50
2023-02-19T10:12:27.454Z,1.40
2023-02-19T10:14:59.387Z,0.83
2023-02-19T10:17:30.682Z,0.80
2023-02-19T10:19:57.942Z,0.80
2023-02-19T10:22:25.135Z,1.70
2023-02-19T10:24:55.474Z,0.80
2023-02-19T10:27:22.423Z,1.00
2023-02-19T10:29:50.219Z,0.90
2023-02-19T10:32:22.165Z,0.90
2023-02-19T10:35:08.088Z,1.07
2023-02-19T10:37:36.156Z,1.10
2023-02-19T10:40:02.924Z,0.93
2023-02-19T10:42:29.684Z,0.70
2023-02-19T10:45:01.035Z,0.87
2023-02-19T10:47:31.982Z,0.97
2023-02-19T10:50:02.050Z,0.70
2023-02-19T10:52:33.596Z,1.10
2023-02-19T10:55:15.837Z,0.70
2023-02-19T10:57:42.513Z,0.60
2023-02-19T11:03:18.607Z,0.77
2023-02-19T11:05:58.855Z,0.80
2023-02-19T11:08:25.434Z,0.70
2023-02-19T11:10:51.960Z,0.70
2023-02-19T11:13:25.361Z,1.33
2023-02-19T11:15:53.694Z,0.77
2023-02-19T11:18:22.840Z,1.40
2023-02-19T11:20:53.657Z,0.90
2023-02-19T11:23:26.498Z,0.70
2023-02-19T11:25:55.636Z,0.90
2023-02-19T11:28:29.498Z,0.80
2023-02-19T11:31:14.465Z,0.70
2023-02-19T11:33:50.298Z,0.90
2023-02-19T11:36:28.700Z,1.07
2023-02-19T11:38:58.377Z,0.90
2023-02-19T11:41:42.668Z,0.70
2023-02-19T11:44:24.971Z,0.87
2023-02-19T11:47:04.810Z,0.73
2023-02-19T11:49:43.390Z,0.70
2023-02-19T11:52:23.312Z,1.57
2023-02-19T11:54:57.019Z,1.23
2023-02-19T11:57:40.119Z,0.83
2023-02-19T12:03:34.320Z,0.90
2023-02-19T12:06:17.629Z,0.77
2023-02-19T12:09:22.329Z,0.90
2023-02-19T12:12:14.225Z,0.93
2023-02-19T12:15:13.060Z,0.70
2023-02-19T12:18:03.450Z,1.57
2023-02-19T12:20:34.592Z,0.90
2023-02-19T12:23:24.101Z,2.60
2023-02-19T12:25:57.803Z,1.40
2023-02-19T12:28:54.034Z,1.50
2023-02-19T12:31:47.693Z,1.33
2023-02-19T12:34:52.379Z,1.27
2023-02-19T12:37:32.464Z,0.70
2023-02-19T12:40:14.318Z,0.90
2023-02-19T12:42:53.989Z,2.10
2023-02-19T12:45:26.688Z,1.10
2023-02-19T12:48:02.500Z,0.90
2023-02-19T12:50:30.263Z,0.77
2023-02-19T12:53:02.119Z,1.00
2023-02-19T12:55:33.759Z,1.00
2023-02-19T12:58:04.346Z,1.40
2023-02-19T13:00:38.674Z,1.03
2023-02-19T13:03:10.898Z,1.40
2023-02-19T13:05:44.742Z,2.43
2023-02-19T13:08:19.237Z,0.87
2023-02-19T13:10:51.060Z,0.93
2023-02-19T13:13:23.877Z,1.67
2023-02-19T13:15:56.305Z,1.37
2023-02-19T13:18:28.483Z,0.93
2023-02-19T13:20:56.180Z,1.00
2023-02-19T13:23:44.831Z,0.93
2023-02-19T13:26:25.903Z,0.70
2023-02-19T13:29:08.409Z,1.20
2023-02-19T13:31:59.503Z,0.73
2023-02-19T13:34:43.840Z,0.90
2023-02-19T13:37:11.294Z,0.97
2023-02-19T13:39:47.922Z,0.70
2023-02-19T13:42:25.578Z,0.80
2023-02-19T13:44:57.076Z,1.00
2023-02-19T13:47:49.025Z,2.03
2023-02-19T13:50:20.690Z,2.17
2023-02-19T13:52:47.220Z,1.40
2023-02-19T13:55:50.688Z,0.70
2023-02-19T13:59:01.211Z,0.90
2023-02-19T14:02:10.582Z,0.80
2023-02-19T14:04:52.003Z,0.80
2023-02-19T14:07:34.862Z,0.97
2023-02-19T14:10:02.244Z,1.47
2023-02-19T14:12:32.949Z,1.17
2023-02-19T14:15:32.952Z,1.30
2023-02-19T14:17:59.359Z,1.20
2023-02-19T14:20:43.497Z,1.37
2023-02-19T14:23:15.861Z,1.10
2023-02-19T14:25:57.480Z,1.00
2023-02-19T14:28:37.520Z,1.07
2023-02-19T14:31:18.347Z,1.00
2023-02-19T14:33:48.497Z,0.90
2023-02-19T14:36:26.962Z,1.77
2023-02-19T14:38:55.981Z,1.73
2023-02-19T14:41:24.414Z,1.47
2023-02-19T14:43:53.750Z,1.83
2023-02-19T14:46:27.609Z,1.00
2023-02-19T14:48:55.492Z,1.80
2023-02-19T14:51:30.146Z,1.23
2023-02-19T14:53:58.394Z,1.50
2023-02-19T14:56:28.412Z,1.33
2023-02-19T14:59:24.270Z,1.13
2023-02-19T15:01:55.135Z,2.87
2023-02-19T15:04:24.087Z,1.20
2023-02-19T15:06:52.382Z,1.60
2023-02-19T15:09:20.600Z,1.13
2023-02-19T15:11:47.787Z,1.40
2023-02-19T15:14:22.973Z,3.27
2023-02-19T15:16:58.390Z,1.30
2023-02-19T15:19:25.180Z,1.37
2023-02-19T15:21:52.269Z,1.70
2023-02-19T15:24:19.263Z,1.60
2023-02-19T15:26:49.996Z,1.47
2023-02-19T15:29:19.499Z,1.60
2023-02-19T15:31:46.860Z,2.00
2023-02-19T15:34:18.052Z,2.47
2023-02-19T15:36:45.021Z,1.43
2023-02-19T15:39:20.590Z,1.43
2023-02-19T15:41:55.784Z,1.67
2023-02-19T15:44:36.446Z,1.43
2023-02-19T15:47:12.195Z,2.53
2023-02-19T15:49:45.761Z,2.40
2023-02-19T15:52:19.744Z,1.60
2023-02-19T15:54:52.384Z,1.50
2023-02-19T15:57:22.369Z,1.37
2023-02-19T15:59:54.273Z,1.37
2023-02-19T16:02:21.038Z,2.13
2023-02-19T16:04:47.501Z,2.13
2023-02-19T16:07:24.172Z,1.33
2023-02-19T16:10:05.979Z,1.37
2023-02-19T16:12:32.514Z,1.07
2023-02-19T16:14:58.931Z,1.70
2023-02-19T16:17:29.971Z,1.77
2023-02-19T16:19:58.117Z,2.43
2023-02-19T16:22:28.279Z,2.10
2023-02-19T16:24:58.591Z,1.53
2023-02-19T16:27:29.936Z,1.50
2023-02-19T16:29:56.904Z,1.67
2023-02-19T16:32:36.911Z,5.20
2023-02-19T16:35:05.515Z,1.27
2023-02-19T16:37:35.085Z,1.63
2023-02-19T16:40:50.292Z,2.10
2023-02-19T16:43:30.984Z,1.77
2023-02-19T16:45:58.501Z,1.80
2023-02-19T16:48:25.731Z,1.57
2023-02-19T16:50:52.380Z,1.53
2023-02-19T16:53:20.358Z,1.30
2023-02-19T16:55:46.954Z,1.40
2023-02-19T16:58:13.475Z,1.20
2023-02-19T17:00:39.924Z,1.40
2023-02-19T17:03:09.371Z,1.20
2023-02-19T17:05:37.740Z,2.93
2023-02-19T17:08:22.368Z,1.83
2023-02-19T17:10:48.782Z,1.67
2023-02-19T17:13:15.279Z,1.90
2023-02-19T17:15:41.811Z,1.40
2023-02-19T17:18:10.297Z,1.70
2023-02-19T17:20:38.204Z,1.73
2023-02-19T17:23:04.583Z,1.30
2023-02-19T17:25:30.978Z,3.63
2023-02-19T17:27:57.414Z,4.27
2023-02-19T17:30:26.815Z,1.60
2023-02-19T17:32:53.293Z,3.47
2023-02-19T17:35:19.756Z,1.67
2023-02-19T17:37:46.995Z,4.00
2023-02-19T17:40:31.786Z,1.50
2023-02-19T17:42:59.145Z,1.87
2023-02-19T17:45:25.652Z,1.53
2023-02-19T17:47:52.323Z,1.37
2023-02-19T17:50:20.938Z,2.33
2023-02-19T17:52:48.245Z,1.53
2023-02-19T17:55:17.615Z,2.07
2023-02-19T17:57:44.555Z,1.70
2023-02-19T18:00:13.798Z,3.17
2023-02-19T18:02:40.249Z,2.50
2023-02-19T18:05:07.104Z,1.63
2023-02-19T18:07:33.558Z,2.10
2023-02-19T18:10:00.613Z,2.83
2023-02-19T18:12:30.130Z,1.60
2023-02-19T18:14:59.098Z,1.67
2023-02-19T18:17:26.269Z,1.63
2023-02-19T18:19:53.440Z,1.93
2023-02-19T18:22:20.393Z,2.93
2023-02-19T18:24:47.684Z,3.53
2023-02-19T18:27:16.513Z,2.10
2023-02-19T18:29:42.902Z,2.00
2023-02-19T18:32:09.533Z,1.60
2023-02-19T18:34:36.387Z,2.47
2023-02-19T18:37:03.172Z,4.17
2023-02-19T18:39:29.585Z,1.30
2023-02-19T18:41:57.394Z,2.07
2023-02-19T18:44:25.096Z,1.93
2023-02-19T18:46:51.903Z,3.50
2023-02-19T18:49:18.318Z,3.20
2023-02-19T18:51:45.891Z,2.23
2023-02-19T18:54:12.489Z,3.37
2023-02-19T18:56:42.574Z,2.13
2023-02-19T18:59:09.415Z,4.53
2023-02-19T19:01:36.865Z,3.33
2023-02-19T19:04:03.614Z,3.80
2023-02-19T19:06:30.253Z,3.17
2023-02-19T19:08:57.884Z,2.30
2023-02-19T19:11:24.774Z,2.37
2023-02-19T19:13:51.245Z,4.10
2023-02-19T19:16:17.649Z,4.13
2023-02-19T19:18:47.126Z,2.20
2023-02-19T19:21:14.938Z,2.33
2023-02-19T19:23:41.546Z,2.50
2023-02-19T19:26:08.870Z,2.40
2023-02-19T19:28:35.469Z,2.80
2023-02-19T19:31:02.352Z,2.67
2023-02-19T19:33:29.228Z,2.13
2023-02-19T19:35:56.363Z,6.50
2023-02-19T19:38:23.276Z,2.67
2023-02-19T19:40:50.616Z,6.33
2023-02-19T19:43:17.074Z,3.23
2023-02-19T19:45:43.550Z,4.47
2023-02-19T19:48:10.170Z,2.37
2023-02-19T19:50:38.290Z,2.03
2023-02-19T19:53:05.325Z,2.37
2023-02-19T19:55:34.928Z,2.17
2023-02-19T19:58:01.666Z,4.10
2023-02-19T20:00:53.950Z,2.13
2023-02-19T20:03:20.743Z,3.20
2023-02-19T20:05:49.571Z,2.10
2023-02-19T20:08:17.379Z,2.20
2023-02-19T20:10:46.182Z,2.97
2023-02-19T20:13:16.133Z,2.53
2023-02-19T20:15:45.207Z,4.30
2023-02-19T20:18:11.936Z,3.50
2023-02-19T20:20:38.347Z,3.73
2023-02-19T20:23:04.755Z,3.43
2023-02-19T20:25:31.903Z,2.77
2023-02-19T20:27:58.286Z,4.20
2023-02-19T20:30:27.765Z,2.70
2023-02-19T20:32:56.346Z,6.13
2023-02-19T20:35:26.439Z,5.33
2023-02-19T20:37:53.749Z,7.67
2023-02-19T20:40:20.228Z,2.87
2023-02-19T20:42:47.359Z,3.73
2023-02-19T20:45:15.945Z,2.53
2023-02-19T20:47:45.436Z,4.63
2023-02-19T20:50:12.014Z,5.73
2023-02-19T20:52:38.426Z,2.93
2023-02-19T20:55:05.514Z,3.10
2023-02-19T20:57:31.936Z,4.20
2023-02-19T20:59:59.047Z,2.83
2023-02-19T21:02:28.418Z,3.97
2023-02-19T21:04:56.017Z,3.57
2023-02-19T21:07:22.704Z,2.77
2023-02-19T21:09:49.303Z,3.80
2023-02-19T21:12:15.837Z,3.90
2023-02-19T21:14:42.630Z,5.27
2023-02-19T21:17:09.730Z,3.43
2023-02-19T21:19:36.136Z,3.07
2023-02-19T21:22:02.647Z,5.63
2023-02-19T21:24:29.078Z,3.93
2023-02-19T21:26:55.464Z,3.13
2023-02-19T21:29:22.309Z,3.37
2023-02-19T21:31:50.424Z,3.37
2023-02-19T21:34:20.634Z,3.77
2023-02-19T21:36:47.091Z,2.63
2023-02-19T21:39:15.859Z,3.47
2023-02-19T21:41:42.313Z,3.63
2023-02-19T21:44:08.807Z,4.20
2023-02-19T21:46:35.339Z,3.33
2023-02-19T21:49:01.828Z,4.00
2023-02-19T21:51:31.152Z,2.80
2023-02-19T21:53:57.867Z,4.60
2023-02-19T21:56:27.122Z,3.07
2023-02-19T21:58:53.980Z,3.80
2023-02-19T22:01:21.395Z,3.53
2023-02-19T22:03:48.233Z,3.20
2023-02-19T22:06:15.227Z,4.30
2023-02-19T22:08:42.957Z,2.67
2023-02-19T22:11:09.764Z,5.83
2023-02-19T22:13:39.965Z,4.30
2023-02-19T22:16:07.079Z,3.63
2023-02-19T22:18:33.826Z,5.03
2023-02-19T22:21:00.480Z,2.47
2023-02-19T22:23:26.899Z,3.33
2023-02-19T22:25:53.900Z,2.50
2023-02-19T22:28:20.335Z,3.67
2023-02-19T22:30:47.117Z,3.73
2023-02-19T22:33:13.490Z,4.57
2023-02-19T22:35:40.085Z,2.80
2023-02-19T22:38:06.514Z,3.73
2023-02-19T22:40:32.906Z,4.03
2023-02-19T22:42:59.969Z,3.67
2023-02-19T22:45:26.331Z,5.80
2023-02-19T22:47:53.783Z,2.90
2023-02-19T22:50:21.850Z,2.60
2023-02-19T22:52:49.102Z,3.17
2023-02-19T22:55:16.008Z,4.07
2023-02-19T22:57:42.437Z,2.70
2023-02-19T23:00:15.852Z,4.43
2023-02-19T23:02:42.260Z,4.30
2023-02-19T23:05:08.662Z,3.13
2023-02-19T23:07:35.117Z,2.63
2023-02-19T23:10:01.553Z,2.90
2023-02-19T23:12:27.941Z,3.70
2023-02-19T23:14:54.387Z,3.10
2023-02-19T23:17:21.439Z,3.47
2023-02-19T23:19:47.883Z,3.03
2023-02-19T23:22:14.367Z,3.50
2023-02-19T23:24:40.791Z,2.60
2023-02-19T23:27:07.252Z,5.40
2023-02-19T23:29:33.696Z,3.07
2023-02-19T23:32:00.237Z,5.77
2023-02-19T23:34:27.445Z,2.57
2023-02-19T23:36:54.641Z,2.97
2023-02-19T23:39:22.142Z,3.03
2023-02-19T23:41:50.193Z,2.43
2023-02-19T23:44:17.354Z,3.10
2023-02-19T23:46:44.201Z,2.83
2023-02-19T23:49:10.692Z,2.90
2023-02-19T23:51:37.743Z,3.90
2023-02-19T23:54:04.372Z,3.60
2023-02-19T23:56:30.936Z,4.53
2023-02-19T23:58:57.938Z,2.90
